本站抢注成功_正在竞价中的域名 (11192) 条记录 [导出列表]

域名 长度 当前价格 域名简介 结束时间 剩余时间 操作
sh-jiantong.com 11 ≈144 [PR2] 2019-8-25 1:39:13 即将结束 [出价]
fidonet.net 7 ≈163 -- 2019-8-25 1:40:13 50秒 [出价]
jinsha508.com 9 ≈144 -- 2019-8-25 1:40:13 50秒 [出价]
csxida.com 6 ≈142 [PR2] 2019-8-25 1:42:14 2分51秒 [出价]
hjzy88.com 6 ≈142 [PR3] 2019-8-25 1:43:13 3分50秒 [出价]
ontariowiLdLife.com 15 ≈284 -- 2019-8-25 1:44:01 4分38秒 [出价]
bytesbits.com 9 ≈214 -- 2019-8-25 1:45:01 5分38秒 [出价]
Lbvq.com 4 ≈620 -- 2019-8-25 1:47:01 7分38秒 [出价]
d-green.org 7 ≈163 -- 2019-8-25 1:49:01 9分38秒 [出价]
corporaciongeo.com 14 ≈142 [PR2] 2019-8-25 1:49:01 9分38秒 [出价]
hysjdg.com 6 ≈142 [PR2] 2019-8-25 1:50:01 10分38秒 [出价]
moLdszjc.com 8 ≈142 [PR3] 2019-8-25 1:50:01 10分38秒 [出价]
infinityfLashgames.com 18 ≈137 [PR3] 2019-8-25 1:54:00 14分37秒 [出价]
ficetea.com 7 ≈135 [PR3] 2019-8-25 1:54:01 14分38秒 [出价]
driot.com 5 ≈163 -- 2019-8-25 1:55:17 15分54秒 [出价]
bqsanmoqi.com 9 ≈135 [PR2] 2019-8-25 1:57:15 17分52秒 [出价]
dgaweb.com 6 ≈144 -- 2019-8-25 1:57:16 17分53秒 [出价]
yaojianpantc.com 12 ≈137 [PR3] 2019-8-25 1:58:17 18分54秒 [出价]
440059.com 6 ≈137 -- 2019-8-25 1:58:18 18分55秒 [出价]
heLLoneest.com 10 ≈137 [PR2] 2019-8-25 1:59:16 19分53秒 [出价]
huaxuanLt.com 9 ≈135 [PR2] 2019-8-25 2:00:13 20分50秒 [出价]
tianchengpj.net 11 ≈156 [PR3] 2019-8-25 2:01:14 21分51秒 [出价]
820001.com 6 ≈144 -- 2019-8-25 2:03:15 23分52秒 [出价]
fzxinye.com 7 ≈135 [PR3] 2019-8-25 2:06:15 26分52秒 [出价]
discount-b.. 20 ≈135 [PR2] 2019-8-25 2:07:15 27分52秒 [出价]
oLdeyork.com 8 ≈144 -- 2019-8-25 2:07:15 27分52秒 [出价]
shipanaLytics.com 13 ≈175 -- 2019-8-25 2:08:21 28分58秒 [出价]
91vi.com 4 ≈144 -- 2019-8-25 2:11:14 31分51秒 [出价]
bjxaLs.com 6 ≈135 [PR2] 2019-8-25 2:12:13 32分50秒 [出价]
sw838.com 5 ≈137 -- 2019-8-25 2:12:16 32分53秒 [出价]
shangLong0531.com 13 ≈137 [PR3] 2019-8-25 2:16:14 36分51秒 [出价]
cycLe-mate.com 10 ≈137 -- 2019-8-25 2:16:16 36分53秒 [出价]
indonesiasearch.com 15 ≈135 -- 2019-8-25 2:26:16 46分53秒 [出价]
dvdexchange.com 11 ≈144 -- 2019-8-25 2:27:14 47分51秒 [出价]
jinsha708.com 9 ≈137 -- 2019-8-25 2:27:16 47分53秒 [出价]
davidorusseLL.com 13 ≈144 -- 2019-8-25 2:30:16 50分53秒 [出价]
whbx027.net 7 ≈156 [PR3] 2019-8-25 2:31:15 51分52秒 [出价]
newtyres.com 8 ≈653 -- 2019-8-25 2:31:16 51分53秒 [出价]
catbaby.com 7 ≈361 -- 2019-8-25 2:32:16 52分53秒 [出价]
ksduijiang.com 10 ≈135 [PR3] 2019-8-25 2:33:15 53分52秒 [出价]
1112676.com 7 ≈298 -- 2019-8-25 2:33:15 53分52秒 [出价]
chinaszac.com 9 ≈137 [PR2] 2019-8-25 2:35:16 55分53秒 [出价]
charonsoftware.com 14 ≈137 -- 2019-8-25 2:36:17 56分54秒 [出价]
cLubbrandy.com 10 ≈144 [PR3] 2019-8-25 2:38:14 58分51秒 [出价]
takasick.com 8 ≈128 [PR2] 2019-8-25 2:39:15 59分52秒 [出价]
kvzo.com 4 ≈828 -- 2019-8-25 2:39:15 59分52秒 [出价]
duvaLLtech.com 10 ≈135 [PR3] 2019-8-25 2:43:14 1小时3分 [出价]
sey30.com 5 ≈135 [PR3] 2019-8-25 2:45:16 1小时5分 [出价]
mL0792.com 6 ≈137 -- 2019-8-25 2:45:16 1小时5分 [出价]
jinsha208.com 9 ≈137 -- 2019-8-25 2:46:15 1小时6分 [出价]
tapheritage.org 11 ≈163 [PR2] 2019-8-25 2:46:17 1小时6分 [出价]
poder360.com 8 2193 [PR3] 2019-8-25 2:47:17 1小时7分 [出价]
corona-extra.net 12 ≈156 -- 2019-8-25 2:48:14 1小时8分 [出价]
9aLw.com 4 ≈130 [PR3] 2019-8-25 2:49:15 1小时9分 [出价]
66kg.net 4 ≈163 [高PR4] 2019-8-25 2:49:15 1小时9分 [出价]
finance-wiz.com 11 ≈135 [PR2] 2019-8-25 2:51:14 1小时11分 [出价]
wzLinkman.com 9 ≈135 [PR2] 2019-8-25 2:51:15 1小时11分 [出价]
robbaron.com 8 ≈144 -- 2019-8-25 2:52:17 1小时12分 [出价]
adamsavebooks.com 13 ≈802 [PR2] 2019-8-25 2:53:17 1小时13分 [出价]
xindeLijixie.net 12 ≈156 5拼:新德理吉鞋 [PR3] 2019-8-25 2:54:13 1小时14分 [出价]
6993999.com 7 ≈135 -- 2019-8-25 2:55:16 1小时15分 [出价]
jinsha408.com 9 ≈137 -- 2019-8-25 2:56:16 1小时16分 [出价]
temporaire.com 10 2415 -- 2019-8-25 2:58:12 1小时18分 [出价]
vc-cn.com 5 ≈413 -- 2019-8-25 2:58:14 1小时18分 [出价]
w-radioLogy.com 11 ≈497 -- 2019-8-25 2:58:17 1小时18分 [出价]
eaap2018.org 8 ≈140 -- 2019-8-25 2:58:20 1小时18分 [出价]
vanadishoteL.com 12 ≈427 -- 2019-8-25 2:58:20 1小时18分 [出价]
Libertine-.. 20 ≈448 -- 2019-8-25 2:58:20 1小时18分 [出价]
masterkids.com 10 1351 -- 2019-8-25 2:58:20 1小时18分 [出价]
tiantianxiu.com 11 ≈483 3拼:天天秀 2019-8-25 2:58:20 1小时18分 [出价]
weiyigou.com 8 ≈623 3拼:微易购 2019-8-25 2:58:20 1小时18分 [出价]
mang.tv 4 ≈413 1拼:芒 2019-8-25 2:58:21 1小时18分 [出价]
mercury.tv 7 ≈728 -- 2019-8-25 2:58:21 1小时18分 [出价]
viLLes.org 6 ≈147 -- 2019-8-25 2:58:21 1小时18分 [出价]
hubstapLer.com 10 ≈448 -- 2019-8-25 2:58:21 1小时18分 [出价]
dewbeLL.com 7 ≈483 -- 2019-8-25 2:58:21 1小时18分 [出价]
woodwynnfarms.org 13 ≈210 -- 2019-8-25 2:58:22 1小时18分 [出价]
33q.cc 3 ≈413 -- 2019-8-25 2:58:22 1小时18分 [出价]
cLinicadentaLe.com 14 ≈518 -- 2019-8-25 2:58:22 1小时18分 [出价]
weLcometomorrow.com 15 ≈483 -- 2019-8-25 2:58:22 1小时18分 [出价]
saojue.com 6 ≈448 2拼:扫绝 2019-8-25 2:58:23 1小时19分 [出价]
cowboyadventures.com 16 ≈728 -- 2019-8-25 2:58:29 1小时19分 [出价]
tuandeng.com 8 1568 2拼:团登 2019-8-25 2:58:29 1小时19分 [出价]
piratespLunder.com 14 ≈490 -- 2019-8-25 2:58:29 1小时19分 [出价]
thecss.com 6 ≈847 -- 2019-8-25 2:58:30 1小时19分 [出价]
Lockney.com 7 ≈413 -- 2019-8-25 2:58:30 1小时19分 [出价]
quLeduo.com 7 ≈623 3拼:趣乐多 2019-8-25 2:58:30 1小时19分 [出价]
868693.com 6 ≈798 -- 2019-8-25 2:58:30 1小时19分 [出价]
tecasan.com 7 ≈462 3拼:特擦伞 2019-8-25 2:58:32 1小时19分 [出价]
zuanfa.com 6 ≈518 2拼:钻发 2019-8-25 2:58:32 1小时19分 [出价]
carcrash.org 8 1001 [PR3] 2019-8-25 2:58:33 1小时19分 [出价]
gab.cc 3 ≈448 -- 2019-8-25 2:58:33 1小时19分 [出价]
officegateway.com 13 ≈665 -- 2019-8-25 2:58:33 1小时19分 [出价]
sLothouse.com 9 2520 -- 2019-8-25 2:58:34 1小时19分 [出价]
thegrittywoman.com 14 ≈448 -- 2019-8-25 2:58:35 1小时19分 [出价]
14065.com 5 ≈483 -- 2019-8-25 2:58:35 1小时19分 [出价]
aiot.org 4 ≈805 -- 2019-8-25 2:58:36 1小时19分 [出价]
jc-group.com 8 ≈553 -- 2019-8-25 2:58:37 1小时19分 [出价]
aLLbugs.com 7 ≈518 -- 2019-8-25 2:58:39 1小时19分 [出价]
nbatseba.com 8 ≈413 -- 2019-8-25 2:58:40 1小时19分 [出价]
每页显示:[20] [50] [100] [200] [500